Time;durP1;ratioP1;P1;durP2;ratioP2;P2;SDS_P1;SDS_P2;PMS_P1;PMS_P2;Temp;Humidity;BMP_temperature;BMP_pressure;BME280_temperature;BME280_humidity;BME280_pressure;Samples;Min_cycle;Max_cycle;Signal;HPM_P1;HPM_P2
2021/06/30 00:00:59;;;;;;;11.13;10.07;;;20.00;99.90;;;;;;5074973;28;20496;-76
2021/06/30 00:03:25;;;;;;;12.73;11.35;;;19.90;99.90;;;;;;5066997;28;20037;-76
2021/06/30 00:05:51;;;;;;;13.07;9.55;;;19.90;99.90;;;;;;5054996;28;20525;-76
2021/06/30 00:08:16;;;;;;;11.80;10.55;;;19.90;99.90;;;;;;5072039;28;20077;-76
2021/06/30 00:10:42;;;;;;;11.07;9.88;;;19.90;99.90;;;;;;5074892;28;20028;-77
2021/06/30 00:13:10;;;;;;;13.07;9.35;;;19.90;99.90;;;;;;5074728;28;20029;-76
2021/06/30 00:15:36;;;;;;;11.48;9.90;;;19.90;99.90;;;;;;5057834;28;20021;-76
2021/06/30 00:18:02;;;;;;;16.52;10.32;;;19.90;99.90;;;;;;5059018;28;20047;-76
2021/06/30 00:20:28;;;;;;;10.90;9.80;;;20.00;99.90;;;;;;5057480;28;20033;-77
2021/06/30 00:22:54;;;;;;;13.45;10.20;;;20.00;99.90;;;;;;5056985;28;20047;-77
2021/06/30 00:25:21;;;;;;;18.48;11.95;;;20.10;99.90;;;;;;5073369;28;20024;-76
2021/06/30 00:27:48;;;;;;;12.85;11.55;;;20.00;99.90;;;;;;5072789;28;20070;-76
2021/06/30 00:30:15;;;;;;;12.50;11.00;;;20.10;99.90;;;;;;5074618;28;20028;-76
2021/06/30 00:32:40;;;;;;;12.93;10.77;;;20.30;99.90;;;;;;5072759;28;20025;-76
2021/06/30 00:35:08;;;;;;;13.77;11.48;;;20.50;99.90;;;;;;5071135;28;20035;-76
2021/06/30 00:37:34;;;;;;;13.48;11.60;;;20.70;99.90;;;;;;5073783;28;20486;-76
2021/06/30 00:40:00;;;;;;;16.83;11.82;;;20.80;99.90;;;;;;5074121;28;20100;-76
2021/06/30 00:42:29;;;;;;;17.23;11.18;;;21.00;99.90;;;;;;5074066;28;20032;-76
2021/06/30 00:44:55;;;;;;;16.58;11.13;;;21.20;97.50;;;;;;5074202;28;20056;-75
2021/06/30 00:47:21;;;;;;;15.63;10.70;;;21.30;97.60;;;;;;5073811;28;20060;-76
2021/06/30 00:49:48;;;;;;;17.30;11.23;;;21.20;96.30;;;;;;5074093;28;20123;-77
2021/06/30 00:52:14;;;;;;;12.73;10.38;;;21.20;95.10;;;;;;5074057;28;20021;-76
2021/06/30 00:54:40;;;;;;;10.95;9.15;;;21.20;94.00;;;;;;5073862;28;20458;-76
2021/06/30 00:57:09;;;;;;;10.40;9.30;;;21.20;94.10;;;;;;5072384;28;20035;-76
2021/06/30 00:59:36;;;;;;;15.80;9.48;;;21.20;94.50;;;;;;5073854;28;20025;-76
2021/06/30 01:02:02;;;;;;;11.95;8.57;;;21.10;91.90;;;;;;5072447;28;20024;-76
2021/06/30 01:04:28;;;;;;;12.98;10.15;;;21.10;91.70;;;;;;5073614;28;20086;-77
2021/06/30 01:06:53;;;;;;;11.27;9.15;;;21.00;91.40;;;;;;5072325;28;20020;-76
2021/06/30 01:09:19;;;;;;;9.27;8.02;;;21.00;92.40;;;;;;5072368;28;20024;-77
2021/06/30 01:11:45;;;;;;;8.00;5.88;;;20.90;92.60;;;;;;5073540;28;20028;-76
2021/06/30 01:14:10;;;;;;;8.65;5.57;;;20.80;87.20;;;;;;5073935;28;20064;-76
2021/06/30 01:16:36;;;;;;;6.53;5.65;;;20.80;85.00;;;;;;5073608;28;20066;-76
2021/06/30 01:19:02;;;;;;;11.57;5.28;;;20.70;83.90;;;;;;5073459;28;20025;-76
2021/06/30 01:21:28;;;;;;;10.50;5.15;;;20.70;84.00;;;;;;5072097;28;20032;-76
2021/06/30 01:23:54;;;;;;;7.25;5.40;;;20.70;84.30;;;;;;5072132;28;20032;-76
2021/06/30 01:26:20;;;;;;;6.13;4.93;;;20.60;84.50;;;;;;5073502;28;20032;-76
2021/06/30 01:28:45;;;;;;;11.02;4.95;;;20.60;85.20;;;;;;5071861;28;20035;-77
2021/06/30 01:31:13;;;;;;;10.18;5.00;;;20.60;85.10;;;;;;5072112;28;20058;-76
2021/06/30 01:33:38;;;;;;;7.53;5.15;;;20.60;85.60;;;;;;5071836;28;20020;-76
2021/06/30 01:36:04;;;;;;;7.68;5.15;;;20.50;85.00;;;;;;5073308;28;20032;-77
2021/06/30 01:38:31;;;;;;;8.18;4.85;;;20.50;84.70;;;;;;5068498;28;20025;-76
2021/06/30 01:40:58;;;;;;;10.40;5.03;;;20.40;85.10;;;;;;5053232;28;20025;-76
2021/06/30 01:43:24;;;;;;;4.88;4.25;;;20.40;85.70;;;;;;5066114;28;20494;-76
2021/06/30 01:45:53;;;;;;;8.73;5.60;;;20.40;86.20;;;;;;5072987;28;20504;-77
2021/06/30 01:48:20;;;;;;;7.80;4.82;;;20.40;85.70;;;;;;5071863;28;20036;-76
2021/06/30 01:50:50;;;;;;;9.48;5.40;;;20.50;86.40;;;;;;5072459;28;20028;-76
2021/06/30 01:53:18;;;;;;;7.40;5.38;;;20.50;88.40;;;;;;5072927;28;20033;-76
2021/06/30 01:55:43;;;;;;;7.30;5.13;;;20.40;90.00;;;;;;5072782;28;20470;-76
2021/06/30 01:58:09;;;;;;;5.43;4.88;;;20.40;90.80;;;;;;5072792;28;20540;-76
2021/06/30 02:12:21;;;;;;;8.65;5.45;;;20.20;88.90;;;;;;5131255;27;20390;-76
2021/06/30 02:14:47;;;;;;;7.03;5.78;;;19.30;99.90;;;;;;5131234;27;20031;-77
2021/06/30 02:17:13;;;;;;;10.98;5.10;;;18.90;99.90;;;;;;5130839;27;20467;-77
2021/06/30 02:19:39;;;;;;;5.40;5.00;;;18.70;99.90;;;;;;5130410;27;20016;-79
2021/06/30 02:22:04;;;;;;;10.73;5.10;;;18.50;99.90;;;;;;5130265;27;20028;-79
2021/06/30 02:24:30;;;;;;;9.05;5.93;;;18.40;99.90;;;;;;5109488;28;20012;-80
2021/06/30 02:26:56;;;;;;;10.18;6.18;;;18.30;99.90;;;;;;5109128;28;20427;-80
2021/06/30 02:29:21;;;;;;;10.88;6.80;;;18.10;99.90;;;;;;5109639;28;20380;-79
2021/06/30 02:31:47;;;;;;;8.18;7.07;;;18.10;99.90;;;;;;5110091;28;20024;-80
2021/06/30 02:34:12;;;;;;;8.70;7.25;;;18.20;99.90;;;;;;5117244;28;20019;-79
2021/06/30 02:36:38;;;;;;;7.53;6.53;;;18.20;99.90;;;;;;5130548;27;20035;-80
2021/06/30 02:39:04;;;;;;;9.55;7.22;;;18.20;99.90;;;;;;5130743;27;20144;-79
2021/06/30 02:41:29;;;;;;;10.60;7.05;;;18.20;99.90;;;;;;5132159;27;20031;-79
2021/06/30 02:43:55;;;;;;;7.63;5.68;;;18.30;99.90;;;;;;5132350;27;20419;-79
2021/06/30 02:46:21;;;;;;;6.90;5.70;;;18.20;99.90;;;;;;5129002;28;20156;-79
2021/06/30 02:48:46;;;;;;;11.48;6.78;;;18.30;99.90;;;;;;5122483;28;20048;-79
2021/06/30 02:51:13;;;;;;;7.45;6.47;;;18.30;99.90;;;;;;5109900;28;20028;-80
2021/06/30 02:53:39;;;;;;;10.48;6.68;;;18.30;99.90;;;;;;5110952;28;20031;-80
2021/06/30 02:56:04;;;;;;;7.13;6.43;;;18.20;99.90;;;;;;5109762;28;20024;-79
2021/06/30 02:58:30;;;;;;;9.32;6.93;;;18.20;99.90;;;;;;5117384;28;20018;-80
2021/06/30 03:00:56;;;;;;;7.43;6.63;;;18.20;99.90;;;;;;5130073;27;20036;-80
2021/06/30 03:03:21;;;;;;;8.88;7.57;;;18.20;99.90;;;;;;5130230;27;20030;-80
2021/06/30 03:05:47;;;;;;;9.02;6.93;;;18.20;99.90;;;;;;5130460;27;20023;-79
2021/06/30 03:08:13;;;;;;;9.48;7.97;;;18.20;99.90;;;;;;5128467;28;20019;-80
2021/06/30 03:10:38;;;;;;;9.43;7.57;;;18.20;99.90;;;;;;5128713;28;20467;-79
2021/06/30 03:13:04;;;;;;;20.00;12.75;;;18.20;99.90;;;;;;5117683;27;20016;-79
2021/06/30 03:15:30;;;;;;;10.82;8.48;;;18.20;99.90;;;;;;5109866;27;20096;-80
2021/06/30 03:17:55;;;;;;;9.35;8.40;;;18.20;99.90;;;;;;5135458;27;20015;-79
2021/06/30 03:20:21;;;;;;;9.85;8.32;;;18.20;99.90;;;;;;5136681;27;20069;-79
2021/06/30 03:22:47;;;;;;;9.15;8.23;;;18.20;99.90;;;;;;5135283;27;20022;-80
2021/06/30 03:25:14;;;;;;;11.57;8.15;;;18.20;99.90;;;;;;5124586;27;20046;-80
2021/06/30 03:27:40;;;;;;;10.10;8.50;;;18.20;99.90;;;;;;5132993;27;20106;-79
2021/06/30 03:30:09;;;;;;;10.32;8.70;;;18.10;99.90;;;;;;5095697;28;20078;-79
2021/06/30 03:32:34;;;;;;;10.68;8.57;;;18.10;99.90;;;;;;5096005;28;20062;-80
2021/06/30 03:35:00;;;;;;;10.40;9.05;;;18.00;99.90;;;;;;5100501;28;20511;-79
2021/06/30 03:37:26;;;;;;;11.10;9.00;;;18.00;99.90;;;;;;5116521;27;20046;-79
2021/06/30 03:39:52;;;;;;;11.32;9.27;;;17.90;99.90;;;;;;5114672;28;20500;-79
2021/06/30 03:42:18;;;;;;;10.95;9.60;;;18.00;99.90;;;;;;5114705;28;20120;-79
2021/06/30 03:44:43;;;;;;;13.02;8.57;;;17.90;99.90;;;;;;5111820;28;20476;-79
2021/06/30 03:47:09;;;;;;;9.18;7.35;;;17.90;99.90;;;;;;5113841;28;20118;-79
2021/06/30 03:49:35;;;;;;;10.90;8.05;;;17.90;99.90;;;;;;5115664;28;20472;-78
2021/06/30 03:52:01;;;;;;;10.45;8.77;;;18.00;99.90;;;;;;5112579;28;20473;-79
2021/06/30 03:54:27;;;;;;;11.27;9.75;;;18.00;99.90;;;;;;5111780;28;20030;-79
2021/06/30 03:56:53;;;;;;;11.23;10.02;;;18.00;99.90;;;;;;5115278;28;20023;-79
2021/06/30 03:59:22;;;;;;;9.38;8.48;;;17.90;99.90;;;;;;5097007;28;20048;-79
2021/06/30 04:01:50;;;;;;;10.40;8.45;;;18.00;99.90;;;;;;5114032;28;20036;-78
2021/06/30 04:04:17;;;;;;;11.10;7.57;;;18.00;99.90;;;;;;5114076;28;20107;-79
2021/06/30 04:06:43;;;;;;;12.00;8.00;;;18.00;99.90;;;;;;5113909;28;20395;-78
2021/06/30 04:09:08;;;;;;;10.68;8.45;;;18.10;99.90;;;;;;5122801;27;20030;-77
2021/06/30 04:11:34;;;;;;;9.65;8.52;;;18.20;99.90;;;;;;5135609;27;20070;-78
2021/06/30 04:14:00;;;;;;;11.65;8.98;;;18.30;99.90;;;;;;5135646;27;20027;-78
2021/06/30 04:16:26;;;;;;;11.20;8.63;;;18.40;99.90;;;;;;5120175;27;20031;-79
2021/06/30 04:18:52;;;;;;;13.07;9.52;;;18.50;99.90;;;;;;5115120;28;20472;-78
2021/06/30 04:21:17;;;;;;;11.75;8.93;;;18.50;99.90;;;;;;5113455;28;20027;-78
2021/06/30 04:23:43;;;;;;;10.93;8.75;;;18.50;99.90;;;;;;5107967;28;20028;-78
2021/06/30 04:26:09;;;;;;;11.25;8.85;;;18.60;99.90;;;;;;5092834;28;20499;-78
2021/06/30 04:28:35;;;;;;;11.98;9.50;;;18.70;99.90;;;;;;5092857;28;20028;-78
2021/06/30 04:31:01;;;;;;;12.48;9.30;;;18.70;99.90;;;;;;5102712;28;20024;-78
2021/06/30 04:33:30;;;;;;;10.02;9.00;;;18.80;99.90;;;;;;5111915;28;20027;-78
2021/06/30 04:35:56;;;;;;;11.88;8.85;;;18.90;99.90;;;;;;5113109;28;20024;-79
2021/06/30 04:38:24;;;;;;;12.52;9.85;;;19.00;99.90;;;;;;5110371;28;20400;-78
2021/06/30 04:40:50;;;;;;;9.00;8.10;;;19.00;99.90;;;;;;5108671;28;20374;-79
2021/06/30 04:43:15;;;;;;;9.32;7.88;;;19.00;99.90;;;;;;5112896;28;20031;-79
2021/06/30 04:45:41;;;;;;;11.35;9.02;;;19.10;99.90;;;;;;5112984;28;20456;-79
2021/06/30 04:48:07;;;;;;;10.20;8.73;;;19.10;99.90;;;;;;5111118;28;20024;-79
2021/06/30 04:50:32;;;;;;;10.43;8.50;;;19.20;99.90;;;;;;5113214;28;20039;-79
2021/06/30 04:52:58;;;;;;;12.90;10.38;;;19.30;99.90;;;;;;5111034;28;20058;-79
2021/06/30 04:55:24;;;;;;;13.30;9.52;;;19.30;99.90;;;;;;5092021;28;20024;-79
2021/06/30 04:57:49;;;;;;;10.95;9.70;;;19.30;99.90;;;;;;5105994;27;20041;-79
2021/06/30 05:00:15;;;;;;;14.70;11.18;;;19.30;99.90;;;;;;5124666;27;20069;-79
2021/06/30 05:02:41;;;;;;;11.80;10.23;;;19.20;99.90;;;;;;5110579;28;20077;-76
2021/06/30 05:05:07;;;;;;;16.25;11.13;;;19.20;99.90;;;;;;5112068;28;20384;-76
2021/06/30 05:07:32;;;;;;;14.63;11.18;;;19.10;99.90;;;;;;5093689;27;20130;-77
2021/06/30 05:09:58;;;;;;;14.77;11.52;;;19.00;99.90;;;;;;5134227;27;20102;-76
2021/06/30 05:12:23;;;;;;;13.18;11.35;;;19.10;99.90;;;;;;5113697;27;20459;-76
2021/06/30 05:14:49;;;;;;;14.65;11.68;;;19.10;99.90;;;;;;5114025;28;20060;-77
2021/06/30 05:17:15;;;;;;;16.15;11.98;;;19.10;99.90;;;;;;5112175;28;20047;-74
2021/06/30 05:19:40;;;;;;;15.20;11.13;;;19.20;99.90;;;;;;5110837;28;20487;-75
2021/06/30 05:22:07;;;;;;;12.15;10.73;;;19.20;99.90;;;;;;5110583;28;20031;-75
2021/06/30 05:24:33;;;;;;;13.52;10.93;;;19.20;99.90;;;;;;5100173;27;20035;-75
2021/06/30 05:26:59;;;;;;;14.35;12.85;;;19.20;99.90;;;;;;5091995;28;20039;-75
2021/06/30 05:29:25;;;;;;;16.77;10.85;;;19.20;99.90;;;;;;5098503;28;20331;-75
2021/06/30 05:31:51;;;;;;;14.98;11.73;;;19.20;99.90;;;;;;5109518;28;20529;-76
2021/06/30 05:34:16;;;;;;;15.88;12.10;;;19.20;99.90;;;;;;5112333;28;20020;-79
2021/06/30 05:36:48;;;;;;;13.98;10.48;;;19.20;99.90;;;;;;5110703;28;20027;-80
2021/06/30 05:39:15;;;;;;;15.43;11.90;;;19.20;99.90;;;;;;5113406;28;20019;-79
2021/06/30 05:41:43;;;;;;;11.73;9.43;;;19.10;99.90;;;;;;5112109;28;20046;-79
2021/06/30 05:44:09;;;;;;;13.25;11.15;;;19.10;99.90;;;;;;5108694;28;20484;-80
2021/06/30 05:46:35;;;;;;;10.93;9.60;;;19.10;99.90;;;;;;5111773;28;20026;-80
2021/06/30 05:49:00;;;;;;;13.50;9.65;;;19.20;99.90;;;;;;5111518;28;20111;-80
2021/06/30 05:51:26;;;;;;;11.35;8.88;;;19.20;99.90;;;;;;5110607;28;20016;-80
2021/06/30 05:53:52;;;;;;;9.88;8.82;;;19.30;99.90;;;;;;5101219;28;20063;-80
2021/06/30 05:56:18;;;;;;;10.50;7.82;;;19.40;99.90;;;;;;5091425;28;20082;-80
2021/06/30 05:58:44;;;;;;;11.57;8.50;;;19.40;99.90;;;;;;5100195;28;20065;-79
2021/06/30 06:01:11;;;;;;;10.45;8.23;;;19.50;99.90;;;;;;5104617;28;20035;-79
2021/06/30 06:03:36;;;;;;;10.95;9.50;;;19.40;99.90;;;;;;5111083;28;20023;-77
2021/06/30 06:06:02;;;;;;;11.80;9.48;;;19.30;99.90;;;;;;5095377;28;20023;-79
2021/06/30 06:08:28;;;;;;;11.35;9.05;;;19.50;99.90;;;;;;5111920;28;20030;-79
2021/06/30 06:10:53;;;;;;;10.10;8.68;;;19.70;99.90;;;;;;5107830;28;20110;-79
2021/06/30 06:13:19;;;;;;;11.20;8.30;;;19.90;99.90;;;;;;5110920;28;20019;-79
2021/06/30 06:15:45;;;;;;;9.25;7.80;;;20.20;99.90;;;;;;5110979;28;20051;-79
2021/06/30 06:18:10;;;;;;;11.13;8.13;;;20.60;99.90;;;;;;5111122;28;20035;-77
2021/06/30 06:20:36;;;;;;;8.45;7.28;;;20.80;99.90;;;;;;5109571;28;20027;-77
2021/06/30 06:23:02;;;;;;;9.30;7.28;;;21.00;99.90;;;;;;5109433;28;20023;-77
2021/06/30 06:25:30;;;;;;;9.27;7.22;;;21.30;99.90;;;;;;5103791;28;20027;-77
2021/06/30 06:27:56;;;;;;;11.35;6.72;;;21.50;99.90;;;;;;5132372;27;20030;-77
2021/06/30 06:30:26;;;;;;;8.57;6.65;;;21.70;99.90;;;;;;5132510;27;20035;-77
2021/06/30 06:32:52;;;;;;;8.82;6.93;;;21.90;99.90;;;;;;5133608;27;20030;-77
2021/06/30 06:35:18;;;;;;;10.40;6.63;;;22.10;99.90;;;;;;5132077;27;20380;-77
2021/06/30 06:37:44;;;;;;;12.68;6.32;;;22.30;97.70;;;;;;5133507;27;20016;-77
2021/06/30 06:40:10;;;;;;;8.73;6.00;;;22.40;95.40;;;;;;5120407;27;20039;-77
2021/06/30 06:42:37;;;;;;;7.65;5.60;;;22.50;94.30;;;;;;5092578;28;20022;-77
2021/06/30 06:45:03;;;;;;;12.75;5.35;;;22.50;87.90;;;;;;5091291;28;20039;-77
2021/06/30 06:47:29;;;;;;;7.93;5.75;;;22.70;87.60;;;;;;5092662;28;20024;-77
2021/06/30 06:49:55;;;;;;;7.68;5.70;;;22.80;88.50;;;;;;5095109;28;20016;-77
2021/06/30 06:52:20;;;;;;;7.03;5.90;;;23.00;90.60;;;;;;5094841;28;20031;-76
2021/06/30 06:54:46;;;;;;;6.82;5.25;;;23.10;87.60;;;;;;5122446;27;20038;-76
2021/06/30 06:57:11;;;;;;;8.82;6.10;;;23.00;84.00;;;;;;5128993;27;20053;-77
2021/06/30 06:59:37;;;;;;;9.38;5.60;;;22.90;89.10;;;;;;5094973;28;20024;-77
2021/06/30 07:02:04;;;;;;;10.20;6.38;;;22.80;87.80;;;;;;5094731;28;20032;-76
2021/06/30 07:04:29;;;;;;;14.18;7.72;;;22.60;85.30;;;;;;5094893;28;20019;-77
2021/06/30 07:06:55;;;;;;;11.50;6.53;;;22.70;89.40;;;;;;5096068;28;20024;-77
2021/06/30 07:09:21;;;;;;;11.60;6.20;;;22.80;91.40;;;;;;5104305;28;20020;-76
2021/06/30 07:11:47;;;;;;;7.03;4.88;;;22.70;92.30;;;;;;5117261;28;20491;-78
2021/06/30 07:14:12;;;;;;;9.57;4.97;;;22.70;87.00;;;;;;5116817;28;20380;-79
2021/06/30 07:16:38;;;;;;;5.45;4.95;;;23.10;89.30;;;;;;5116270;28;20528;-78
2021/06/30 07:19:04;;;;;;;4.43;4.03;;;23.30;85.90;;;;;;5116755;28;20380;-78
2021/06/30 07:21:30;;;;;;;5.13;3.58;;;23.50;81.70;;;;;;5116030;28;20377;-79
2021/06/30 07:23:56;;;;;;;3.08;2.83;;;23.70;82.20;;;;;;5114274;27;20035;-79
2021/06/30 07:26:22;;;;;;;6.30;3.40;;;24.00;78.00;;;;;;5116068;28;20023;-76
2021/06/30 07:28:47;;;;;;;6.68;3.67;;;23.90;80.00;;;;;;5098052;28;20047;-77
2021/06/30 07:31:13;;;;;;;5.95;2.85;;;23.60;80.20;;;;;;5094310;28;20358;-77
2021/06/30 07:33:40;;;;;;;4.28;2.88;;;23.60;79.50;;;;;;5095773;28;20020;-76
2021/06/30 07:36:08;;;;;;;5.57;3.58;;;23.60;80.30;;;;;;5094384;28;20584;-77
2021/06/30 07:38:33;;;;;;;6.07;2.97;;;23.40;78.20;;;;;;5095145;28;20016;-77
2021/06/30 07:40:59;;;;;;;7.13;3.28;;;23.20;77.90;;;;;;5126112;27;20084;-77
2021/06/30 07:43:25;;;;;;;5.07;3.20;;;23.20;78.70;;;;;;5135290;27;20027;-76
2021/06/30 07:45:51;;;;;;;3.28;2.50;;;23.00;79.30;;;;;;5136447;27;20020;-76
2021/06/30 07:48:16;;;;;;;3.45;2.95;;;23.10;80.80;;;;;;5125347;27;20391;-76
2021/06/30 07:50:42;;;;;;;5.20;2.50;;;23.30;79.60;;;;;;5114371;28;20027;-76
2021/06/30 07:53:08;;;;;;;4.07;2.80;;;23.30;80.00;;;;;;5113427;27;20027;-77
2021/06/30 07:55:33;;;;;;;4.68;3.10;;;23.50;80.60;;;;;;5114792;27;20380;-76
2021/06/30 07:57:59;;;;;;;3.60;2.88;;;23.20;79.10;;;;;;5106723;28;20058;-77
2021/06/30 08:00:25;;;;;;;3.70;3.38;;;23.10;77.80;;;;;;5103868;27;20043;-76
2021/06/30 08:02:50;;;;;;;3.72;3.05;;;23.20;79.50;;;;;;5114144;28;20028;-76
2021/06/30 08:05:16;;;;;;;6.07;3.10;;;22.90;78.80;;;;;;5114047;28;20369;-76
2021/06/30 08:07:42;;;;;;;4.60;3.08;;;23.10;79.70;;;;;;5114082;28;20027;-76
2021/06/30 08:10:09;;;;;;;4.40;3.50;;;23.00;76.90;;;;;;5113813;28;20032;-76
2021/06/30 08:12:35;;;;;;;3.75;3.45;;;23.00;77.60;;;;;;5115189;28;20033;-77
2021/06/30 08:15:01;;;;;;;3.72;2.92;;;23.20;77.20;;;;;;5102593;28;20070;-76
2021/06/30 08:17:27;;;;;;;5.10;4.00;;;23.10;74.70;;;;;;5129526;27;20480;-77
2021/06/30 08:19:53;;;;;;;6.78;4.22;;;23.10;76.20;;;;;;5131159;27;20050;-77
2021/06/30 08:22:18;;;;;;;8.05;6.00;;;23.20;76.40;;;;;;5113673;28;20016;-76
2021/06/30 08:24:44;;;;;;;3.40;3.10;;;23.30;75.20;;;;;;5106955;27;20015;-76
2021/06/30 08:27:12;;;;;;;4.80;3.40;;;23.40;74.00;;;;;;5129956;27;20023;-76
2021/06/30 08:29:39;;;;;;;4.30;3.55;;;23.20;73.90;;;;;;5094574;28;20025;-76
2021/06/30 08:32:06;;;;;;;3.50;3.20;;;23.40;71.70;;;;;;5095480;28;20020;-76
2021/06/30 08:34:31;;;;;;;7.78;4.45;;;23.50;71.30;;;;;;5093138;28;20021;-76
2021/06/30 08:37:03;;;;;;;7.03;5.28;;;23.50;71.40;;;;;;5092965;28;20566;-76
2021/06/30 08:39:29;;;;;;;7.05;6.35;;;23.50;72.90;;;;;;5093386;28;20020;-76
2021/06/30 08:41:55;;;;;;;5.63;3.17;;;23.60;72.00;;;;;;5092869;28;20401;-77
2021/06/30 08:44:22;;;;;;;4.90;3.55;;;23.40;70.60;;;;;;5094262;28;20024;-77
2021/06/30 08:46:49;;;;;;;9.98;5.28;;;23.40;72.60;;;;;;5094455;28;20022;-76
2021/06/30 08:49:23;;;;;;;7.72;4.45;;;23.50;72.60;;;;;;5094118;28;20069;-76
2021/06/30 08:51:52;;;;;;;4.35;3.58;;;23.50;71.40;;;;;;5092775;28;20473;-76
2021/06/30 08:54:18;;;;;;;7.28;4.20;;;23.50;71.30;;;;;;5103869;27;20120;-76
2021/06/30 08:56:44;;;;;;;4.82;3.50;;;23.70;73.80;;;;;;5093069;28;20456;-76
2021/06/30 08:59:10;;;;;;;13.55;3.83;;;23.90;69.90;;;;;;5092093;28;20473;-76
2021/06/30 09:01:36;;;;;;;3.67;3.38;;;23.90;69.40;;;;;;5093760;28;20039;-77
2021/06/30 09:04:03;;;;;;;4.70;4.10;;;24.20;72.60;;;;;;5092594;28;20043;-77
2021/06/30 09:06:29;;;;;;;5.38;4.25;;;24.30;70.80;;;;;;5123934;27;20064;-77
2021/06/30 09:09:01;;;;;;;3.85;3.42;;;24.40;70.30;;;;;;5133392;27;20480;-77
2021/06/30 09:11:30;;;;;;;6.40;4.53;;;24.40;67.70;;;;;;5134544;27;20030;-77
2021/06/30 09:14:24;;;;;;;6.93;3.90;;;24.50;68.80;;;;;;5102338;27;20020;-76
2021/06/30 09:17:02;;;;;;;5.35;3.35;;;24.60;67.00;;;;;;5092604;28;20040;-76
2021/06/30 09:19:52;;;;;;;5.13;4.63;;;24.90;69.70;;;;;;5092251;28;20020;-76
2021/06/30 09:22:20;;;;;;;7.32;3.05;;;24.90;66.50;;;;;;5093402;28;20093;-76
2021/06/30 09:24:46;;;;;;;7.95;3.75;;;24.70;65.80;;;;;;5130993;27;20062;-77
2021/06/30 09:27:16;;;;;;;4.78;3.17;;;24.30;65.60;;;;;;5122114;27;20024;-77
2021/06/30 09:29:43;;;;;;;4.68;3.80;;;24.50;67.60;;;;;;5093479;28;20031;-77
2021/06/30 09:32:13;;;;;;;3.90;3.08;;;24.50;66.30;;;;;;5093314;28;20043;-76
2021/06/30 09:34:39;;;;;;;7.03;4.15;;;24.70;66.00;;;;;;5095458;28;20551;-76
2021/06/30 09:37:07;;;;;;;4.53;3.30;;;25.10;67.00;;;;;;5112224;28;20115;-76
2021/06/30 09:39:37;;;;;;;5.05;3.08;;;25.40;65.90;;;;;;5113142;28;20031;-76
2021/06/30 09:42:08;;;;;;;6.15;3.60;;;25.60;64.40;;;;;;5112737;28;20031;-76
2021/06/30 09:44:34;;;;;;;3.42;3.05;;;25.80;61.20;;;;;;5111766;28;20026;-76
2021/06/30 09:47:00;;;;;;;3.00;2.50;;;25.80;59.50;;;;;;5112113;27;20073;-76
2021/06/30 09:49:27;;;;;;;3.17;2.72;;;25.50;59.80;;;;;;5113568;28;20019;-76
2021/06/30 09:52:22;;;;;;;3.47;2.92;;;25.70;59.10;;;;;;5112200;28;20031;-77
2021/06/30 09:54:49;;;;;;;3.70;2.67;;;25.20;59.20;;;;;;5088571;28;20063;-76
2021/06/30 09:57:16;;;;;;;3.45;3.15;;;25.30;60.30;;;;;;5092941;28;20032;-76
2021/06/30 09:59:49;;;;;;;6.30;2.80;;;25.40;59.90;;;;;;5091865;28;20051;-77
2021/06/30 10:02:17;;;;;;;5.50;2.90;;;25.50;59.60;;;;;;5091687;28;20025;-76
2021/06/30 10:04:48;;;;;;;3.10;2.80;;;25.60;59.60;;;;;;5093952;28;20027;-76
2021/06/30 10:07:17;;;;;;;3.58;2.60;;;25.80;59.50;;;;;;5132440;28;20027;-76
2021/06/30 10:09:48;;;;;;;3.88;3.22;;;25.90;59.50;;;;;;5134401;27;20031;-78
2021/06/30 10:12:16;;;;;;;4.07;2.57;;;26.00;59.90;;;;;;5133652;27;20038;-78
2021/06/30 10:14:44;;;;;;;3.65;2.60;;;25.80;58.10;;;;;;5107778;27;20092;-79
2021/06/30 10:17:12;;;;;;;3.53;2.47;;;25.90;58.00;;;;;;5092696;28;20048;-78
2021/06/30 10:19:40;;;;;;;5.97;2.63;;;26.00;58.30;;;;;;5091671;28;20016;-78
2021/06/30 10:22:07;;;;;;;5.38;2.45;;;26.20;58.90;;;;;;5094725;28;20059;-78
2021/06/30 10:24:33;;;;;;;4.10;3.33;;;26.40;58.50;;;;;;5096898;28;20491;-78
2021/06/30 10:26:59;;;;;;;2.70;2.42;;;26.20;58.20;;;;;;5102197;28;20031;-78
2021/06/30 10:29:31;;;;;;;3.60;2.08;;;26.10;58.50;;;;;;5117232;28;20019;-79
2021/06/30 10:31:59;;;;;;;4.10;2.67;;;26.10;58.70;;;;;;5105009;28;20028;-78
2021/06/30 10:34:39;;;;;;;4.25;2.80;;;25.90;59.40;;;;;;5096719;28;20061;-79
2021/06/30 10:37:17;;;;;;;3.65;2.80;;;25.80;59.80;;;;;;5095340;28;20058;-78
2021/06/30 10:39:47;;;;;;;3.88;2.45;;;25.70;58.60;;;;;;5095342;28;20030;-78
2021/06/30 10:42:21;;;;;;;2.50;2.40;;;25.90;58.90;;;;;;5095079;28;20040;-78
2021/06/30 10:44:54;;;;;;;3.03;2.72;;;26.00;59.20;;;;;;5096427;28;20103;-78
2021/06/30 10:47:39;;;;;;;4.65;2.50;;;26.00;57.90;;;;;;5110313;27;20019;-78
2021/06/30 10:50:17;;;;;;;4.63;2.15;;;26.20;59.50;;;;;;5116436;28;20028;-78
2021/06/30 10:52:44;;;;;;;5.88;3.80;;;26.30;58.10;;;;;;5114635;28;20072;-78
2021/06/30 10:55:32;;;;;;;10.15;5.68;;;26.30;58.10;;;;;;5115302;28;20020;-78
2021/06/30 10:58:19;;;;;;;6.80;2.97;;;26.10;57.30;;;;;;5116129;28;20118;-79
2021/06/30 11:01:01;;;;;;;2.97;2.78;;;25.90;57.40;;;;;;5116356;28;20042;-79
2021/06/30 11:03:34;;;;;;;5.65;3.28;;;25.70;57.90;;;;;;5116458;28;20031;-78
2021/06/30 11:06:17;;;;;;;4.30;3.00;;;25.80;57.10;;;;;;5115305;28;20115;-79
2021/06/30 11:08:57;;;;;;;4.05;3.22;;;26.00;58.10;;;;;;5105911;28;20481;-78
2021/06/30 11:11:29;;;;;;;4.68;3.40;;;26.20;58.80;;;;;;5095156;28;20028;-79
2021/06/30 11:13:58;;;;;;;;;;;25.80;56.80;;;;;;5095147;28;20027;-79
2021/06/30 11:16:45;;;;;;;5.28;3.05;;;26.20;58.40;;;;;;5094681;28;19904;-78
2021/06/30 11:19:17;;;;;;;5.78;3.08;;;26.30;58.10;;;;;;5094696;28;20101;-78
2021/06/30 11:21:50;;;;;;;4.45;3.30;;;26.50;57.00;;;;;;5107800;28;20043;-78
2021/06/30 11:24:41;;;;;;;2.97;2.63;;;26.50;56.50;;;;;;5111852;28;20433;-78
2021/06/30 11:27:07;;;;;;;3.28;2.97;;;26.70;57.00;;;;;;5111697;28;20034;-78
2021/06/30 11:29:42;;;;;;;2.90;2.70;;;26.80;55.30;;;;;;5114392;28;20028;-78
2021/06/30 11:32:09;;;;;;;4.18;3.08;;;26.50;53.70;;;;;;5111625;28;20438;-78
2021/06/30 11:34:39;;;;;;;5.53;3.53;;;26.70;55.10;;;;;;5112947;28;21085;-78
2021/06/30 11:37:07;;;;;;;2.85;2.65;;;26.50;55.20;;;;;;5110668;28;20019;-79
2021/06/30 11:39:33;;;;;;;4.47;2.58;;;26.40;55.70;;;;;;5113211;28;20028;-79
2021/06/30 11:42:02;;;;;;;3.58;2.67;;;26.60;55.60;;;;;;5101383;28;20044;-78
2021/06/30 11:44:35;;;;;;;9.40;3.70;;;26.70;55.60;;;;;;5095405;28;20465;-78
2021/06/30 11:47:03;;;;;;;5.30;3.72;;;26.80;55.20;;;;;;5095310;28;20027;-78
2021/06/30 11:49:29;;;;;;;5.05;3.33;;;26.90;55.20;;;;;;5095306;28;20103;-78
2021/06/30 11:51:56;;;;;;;4.13;2.92;;;26.90;55.00;;;;;;5094180;28;20024;-78
2021/06/30 11:54:25;;;;;;;5.35;2.70;;;26.90;54.20;;;;;;5113636;27;20062;-78
2021/06/30 11:56:51;;;;;;;6.07;3.85;;;26.80;55.30;;;;;;5114841;27;20022;-78
2021/06/30 11:59:19;;;;;;;8.55;3.88;;;26.50;54.40;;;;;;5095116;28;20099;-79
2021/06/30 12:01:46;;;;;;;7.65;3.97;;;26.50;55.30;;;;;;5095002;28;20044;-78
2021/06/30 12:04:27;;;;;;;3.70;3.40;;;26.60;55.90;;;;;;5096008;28;20024;-78
2021/06/30 12:06:56;;;;;;;6.22;3.00;;;26.60;55.00;;;;;;5094920;28;20073;-78
2021/06/30 12:09:28;;;;;;;5.72;3.40;;;26.50;55.70;;;;;;5094930;28;20031;-78
2021/06/30 12:12:06;;;;;;;4.17;2.80;;;26.50;56.40;;;;;;5096223;28;20032;-78
2021/06/30 12:14:39;;;;;;;3.75;2.83;;;26.40;56.60;;;;;;5094885;28;20024;-78
2021/06/30 12:17:07;;;;;;;4.88;3.25;;;26.60;55.50;;;;;;5094749;28;20103;-78
2021/06/30 12:19:40;;;;;;;6.85;3.35;;;26.80;55.60;;;;;;5095454;28;20103;-79
2021/06/30 12:22:41;;;;;;;4.63;2.63;;;26.90;55.20;;;;;;5094349;28;20489;-78
2021/06/30 12:25:29;;;;;;;4.80;2.70;;;26.80;54.50;;;;;;5063597;28;20078;-79
2021/06/30 12:27:59;;;;;;;3.10;2.33;;;26.80;54.60;;;;;;5094553;28;20097;-78
2021/06/30 12:30:30;;;;;;;4.97;3.28;;;26.90;55.90;;;;;;5094651;28;20443;-79
2021/06/30 12:33:07;;;;;;;3.23;2.90;;;26.80;55.90;;;;;;5093208;28;20012;-78
2021/06/30 12:35:36;;;;;;;3.03;2.65;;;26.90;56.90;;;;;;5093170;28;20365;-78
2021/06/30 12:38:10;;;;;;;3.90;2.63;;;27.00;55.70;;;;;;5094280;28;20023;-78
2021/06/30 12:40:37;;;;;;;3.60;3.08;;;27.00;56.10;;;;;;5094123;28;20036;-78
2021/06/30 12:43:15;;;;;;;3.55;3.08;;;26.90;54.20;;;;;;5108736;27;20038;-79
2021/06/30 12:45:53;;;;;;;4.47;3.03;;;26.80;54.80;;;;;;5109059;27;20028;-79
2021/06/30 12:48:27;;;;;;;5.70;2.65;;;26.60;55.30;;;;;;5094162;28;20020;-79
2021/06/30 12:51:08;;;;;;;3.78;3.00;;;26.70;56.40;;;;;;5093405;28;20435;-78
2021/06/30 12:53:37;;;;;;;4.70;2.20;;;26.90;56.20;;;;;;5108367;27;20029;-78
2021/06/30 12:56:08;;;;;;;5.53;3.13;;;27.20;56.10;;;;;;5134727;27;20126;-79
2021/06/30 12:58:37;;;;;;;3.47;2.55;;;27.30;55.30;;;;;;5095165;27;20105;-79